Time;durP1;ratioP1;P1;durP2;ratioP2;P2;SDS_P1;SDS_P2;PMS_P1;PMS_P2;Temp;Humidity;BMP_temperature;BMP_pressure;BME280_temperature;BME280_humidity;BME280_pressure;Samples;Min_cycle;Max_cycle;Signal;HPM_P1;HPM_P2
2022/04/08 07:58:45;;;;;;;6.93;6.10;;;;;;;6.44;79.24;99783.00;5288408;28;20385;-68
2022/04/08 08:01:16;;;;;;;17.30;12.43;;;;;;;6.66;80.05;99776.19;5275976;28;20025;-66
2022/04/08 08:03:48;;;;;;;9.70;6.22;;;;;;;6.73;79.36;99774.72;5276192;28;20033;-67
2022/04/08 08:06:20;;;;;;;8.05;5.05;;;;;;;6.86;78.44;99775.16;5278321;28;20032;-67
2022/04/08 08:08:51;;;;;;;9.05;5.25;;;;;;;6.92;77.27;99772.06;5284047;28;20028;-68
2022/04/08 08:11:22;;;;;;;6.43;4.85;;;;;;;6.96;77.06;99766.78;5277030;28;20022;-68
2022/04/08 08:13:54;;;;;;;16.33;9.80;;;;;;;6.84;76.21;99777.38;5294395;28;20119;-69
2022/04/08 08:16:25;;;;;;;6.97;5.25;;;;;;;6.79;75.24;99770.00;5286145;28;20025;-67
2022/04/08 08:18:57;;;;;;;9.48;4.75;;;;;;;6.81;75.24;99776.03;5288768;28;20048;-73
2022/04/08 08:21:28;;;;;;;5.68;4.40;;;;;;;6.75;75.26;99771.69;5281988;28;20052;-66
2022/04/08 08:23:59;;;;;;;7.38;5.00;;;;;;;6.85;75.60;99770.75;5279674;28;20383;-70
2022/04/08 08:26:31;;;;;;;8.45;4.20;;;;;;;6.80;74.55;99776.31;5286099;28;20122;-70
2022/04/08 08:29:02;;;;;;;17.00;14.95;;;;;;;6.84;74.13;99769.13;5288665;28;20017;-71
2022/04/08 08:31:33;;;;;;;74.18;55.38;;;;;;;6.86;73.69;99761.38;5295571;28;20024;-68
2022/04/08 08:34:04;;;;;;;10.15;4.50;;;;;;;7.01;73.94;99760.41;5282551;28;20025;-67
2022/04/08 08:36:36;;;;;;;6.18;5.53;;;;;;;6.96;72.93;99753.81;5277900;28;20028;-70
2022/04/08 08:39:07;;;;;;;16.55;7.30;;;;;;;7.03;73.59;99747.13;5270351;28;20033;-68
2022/04/08 08:41:39;;;;;;;9.32;4.53;;;;;;;7.11;72.39;99741.81;5282280;28;20029;-68
2022/04/08 08:44:10;;;;;;;6.07;3.90;;;;;;;7.11;72.02;99735.47;5276598;28;20032;-68
2022/04/08 08:46:42;;;;;;;6.13;4.25;;;;;;;6.97;71.81;99732.59;5286479;28;20028;-69
2022/04/08 08:49:18;;;;;;;9.65;5.38;;;;;;;7.03;71.91;99727.84;5282306;28;20495;-67
2022/04/08 08:51:57;;;;;;;;;;;;;;;7.24;72.21;99722.91;5296378;28;20367;-68
2022/04/08 08:54:28;;;;;;;5.88;4.20;;;;;;;7.24;72.10;99720.97;5264122;28;19913;-69
2022/04/08 08:57:00;;;;;;;7.30;4.05;;;;;;;7.22;69.40;99716.88;5275407;28;20083;-70
2022/04/08 08:59:31;;;;;;;7.15;4.97;;;;;;;7.12;69.31;99715.06;5294832;28;20016;-69
2022/04/08 09:02:03;;;;;;;6.63;4.85;;;;;;;7.27;70.46;99712.09;5277013;28;20031;-69
2022/04/08 09:04:40;;;;;;;5.70;4.00;;;;;;;7.39;70.60;99712.50;5275401;28;20078;-68
2022/04/08 09:07:28;;;;;;;7.60;4.10;;;;;;;7.46;70.61;99709.38;5288492;28;20035;-68
2022/04/08 09:09:59;;;;;;;5.30;3.92;;;;;;;7.42;69.81;99691.78;5263794;28;20028;-67
2022/04/08 09:12:30;;;;;;;4.05;3.53;;;;;;;7.83;74.64;99697.53;5267871;28;20020;-66
2022/04/08 09:15:02;;;;;;;5.18;4.03;;;;;;;7.54;69.14;99705.13;5248408;28;20056;-67
2022/04/08 09:17:40;;;;;;;3.65;3.08;;;;;;;7.97;74.91;99703.09;5276144;28;20032;-67
2022/04/08 09:20:12;;;;;;;7.88;4.35;;;;;;;8.22;74.71;99704.63;5253686;28;20087;-67
2022/04/08 09:22:54;;;;;;;5.40;3.88;;;;;;;8.11;71.39;99711.47;5272738;28;20020;-67
2022/04/08 09:25:26;;;;;;;7.82;4.25;;;;;;;8.15;71.54;99709.72;5270930;28;20025;-66
2022/04/08 09:28:22;;;;;;;6.25;4.00;;;;;;;8.11;68.77;99703.19;5281426;28;20024;-67
2022/04/08 09:30:55;;;;;;;16.45;12.20;;;;;;;7.90;67.32;99702.69;5267147;28;20020;-66
2022/04/08 09:33:27;;;;;;;7.88;4.25;;;;;;;7.86;66.84;99701.63;5270488;28;20545;-66
2022/04/08 09:35:59;;;;;;;6.03;3.97;;;;;;;7.73;67.08;99703.19;5279880;28;20009;-67
2022/04/08 09:38:31;;;;;;;7.30;4.28;;;;;;;7.76;66.43;99699.03;5271340;28;20467;-65
2022/04/08 09:41:07;;;;;;;8.02;4.53;;;;;;;7.70;66.58;99697.47;5273539;28;20021;-68
2022/04/08 09:43:39;;;;;;;11.23;4.38;;;;;;;7.73;66.57;99703.19;5279784;28;20056;-68
2022/04/08 09:46:18;;;;;;;9.75;4.32;;;;;;;7.74;66.44;99704.81;5263399;28;20036;-68
2022/04/08 09:48:49;;;;;;;6.05;3.25;;;;;;;7.74;65.58;99699.31;5264424;28;20111;-68
2022/04/08 09:51:21;;;;;;;8.75;3.40;;;;;;;7.82;65.35;99695.91;5269680;28;20123;-66
2022/04/08 09:54:02;;;;;;;10.55;3.85;;;;;;;7.89;67.14;99712.06;5270404;28;20464;-68
2022/04/08 09:56:36;;;;;;;6.10;3.95;;;;;;;7.93;67.41;99704.03;5276808;28;20040;-68
2022/04/08 09:59:11;;;;;;;8.00;4.43;;;;;;;7.93;66.67;99698.50;5263054;28;20468;-67
2022/04/08 10:01:44;;;;;;;8.68;4.40;;;;;;;7.87;66.04;99705.19;5244638;28;20029;-68
2022/04/08 10:04:15;;;;;;;7.28;4.03;;;;;;;7.84;66.41;99696.41;5268453;28;20016;-67
2022/04/08 10:06:46;;;;;;;9.95;5.05;;;;;;;7.88;66.12;99695.81;5264778;28;20545;-68
2022/04/08 10:09:19;;;;;;;6.60;4.20;;;;;;;7.92;66.51;99691.31;5279696;28;20028;-68
2022/04/08 10:11:59;;;;;;;13.00;4.78;;;;;;;7.88;66.10;99691.13;5278283;28;20550;-68
2022/04/08 10:14:53;;;;;;;6.53;4.35;;;;;;;7.85;66.65;99700.00;5270833;28;20082;-67
2022/04/08 10:17:25;;;;;;;6.88;3.78;;;;;;;7.95;66.25;99702.59;5269460;28;20021;-68
2022/04/08 10:20:22;;;;;;;7.93;4.13;;;;;;;7.91;65.78;99695.22;5258070;28;20053;-68
2022/04/08 10:23:05;;;;;;;9.80;4.80;;;;;;;7.97;66.09;99696.75;5271894;28;20039;-68
2022/04/08 10:25:42;;;;;;;10.52;4.18;;;;;;;8.01;66.23;99690.34;5267020;28;20033;-67
2022/04/08 10:28:13;;;;;;;6.90;4.15;;;;;;;8.02;65.46;99689.22;5248338;28;20537;-67
2022/04/08 10:30:49;;;;;;;7.72;3.65;;;;;;;8.01;64.50;99690.34;5271395;28;20111;-67
2022/04/08 10:33:25;;;;;;;6.13;4.32;;;;;;;7.98;65.04;99690.13;5268882;28;20033;-65
2022/04/08 10:36:02;;;;;;;7.55;3.53;;;;;;;7.88;64.05;99684.78;5263147;28;20416;-66
2022/04/08 10:38:37;;;;;;;6.20;3.78;;;;;;;7.86;64.15;99681.50;5268809;28;20037;-65
2022/04/08 10:41:10;;;;;;;;;;;;;;;7.96;64.49;99682.16;5275279;28;20032;-65
2022/04/08 10:43:43;;;;;;;13.63;3.85;;;;;;;7.93;64.64;99681.94;5266871;28;19917;-66
2022/04/08 10:46:29;;;;;;;10.45;3.85;;;;;;;7.99;64.10;99683.47;5246587;28;20052;-67
2022/04/08 10:49:00;;;;;;;7.63;3.42;;;;;;;7.95;63.65;99677.75;5269753;28;20557;-66
2022/04/08 10:51:32;;;;;;;7.35;3.60;;;;;;;7.95;63.79;99682.44;5271926;28;20097;-66
2022/04/08 10:54:04;;;;;;;9.23;4.18;;;;;;;7.94;63.39;99680.81;5275320;28;20017;-66
2022/04/08 10:56:35;;;;;;;8.35;3.20;;;;;;;7.97;63.75;99677.44;5266107;28;20048;-66
2022/04/08 10:59:07;;;;;;;6.75;3.08;;;;;;;8.04;64.20;99677.88;5257586;28;20373;-66
2022/04/08 11:01:47;;;;;;;10.25;3.42;;;;;;;8.02;64.72;99682.88;5273305;28;20376;-66
2022/04/08 11:04:19;;;;;;;7.57;3.60;;;;;;;8.00;64.16;99680.44;5273891;28;20029;-67
2022/04/08 11:06:51;;;;;;;6.28;3.60;;;;;;;8.17;64.88;99668.81;5257326;28;20078;-66
2022/04/08 11:09:23;;;;;;;6.30;3.17;;;;;;;8.13;64.09;99661.44;5264976;28;20443;-66
2022/04/08 11:11:54;;;;;;;5.53;3.25;;;;;;;8.15;64.17;99651.72;5265885;28;20104;-66
2022/04/08 11:14:28;;;;;;;9.95;3.33;;;;;;;8.16;64.25;99655.31;5256222;28;20176;-66
2022/04/08 11:16:59;;;;;;;12.02;3.80;;;;;;;8.12;63.77;99655.09;5266181;28;20388;-66
2022/04/08 11:19:31;;;;;;;8.32;3.30;;;;;;;8.19;63.71;99652.78;5263513;28;20056;-65
2022/04/08 11:22:10;;;;;;;7.30;3.92;;;;;;;8.11;63.45;99652.66;5276554;28;20013;-65
2022/04/08 11:24:42;;;;;;;8.20;3.50;;;;;;;8.11;63.73;99653.47;5271004;28;20035;-66
2022/04/08 11:27:13;;;;;;;7.15;3.17;;;;;;;8.15;64.31;99648.16;5268203;28;20021;-65
2022/04/08 11:29:44;;;;;;;8.90;3.45;;;;;;;8.32;64.33;99642.06;5247351;28;20436;-67
2022/04/08 11:32:16;;;;;;;8.55;4.18;;;;;;;8.30;64.11;99642.34;5263651;28;20028;-66
2022/04/08 11:34:48;;;;;;;19.55;13.50;;;;;;;8.25;63.84;99631.41;5272932;28;20036;-67
2022/04/08 11:37:26;;;;;;;13.55;11.73;;;;;;;8.40;64.22;99622.03;5245470;28;20037;-66
2022/04/08 11:39:58;;;;;;;7.85;3.40;;;;;;;8.36;63.98;99616.28;5270709;28;20021;-67
2022/04/08 11:42:29;;;;;;;9.32;3.63;;;;;;;8.12;62.32;99601.81;5254413;28;20103;-68
2022/04/08 11:45:04;;;;;;;8.02;3.92;;;;;;;7.95;62.90;99597.69;5268018;28;20013;-69
2022/04/08 11:47:40;;;;;;;8.30;4.05;;;;;;;8.12;64.05;99599.88;5257953;28;20419;-67
2022/04/08 11:50:12;;;;;;;8.40;3.13;;;;;;;8.14;63.27;99603.16;5243655;28;20159;-67
2022/04/08 11:52:52;;;;;;;9.25;4.15;;;;;;;8.12;62.28;99605.38;5251299;28;20868;-68
2022/04/08 11:55:26;;;;;;;8.27;3.60;;;;;;;8.27;62.26;99601.53;5258399;28;20060;-69
2022/04/08 11:57:58;;;;;;;8.07;3.08;;;;;;;8.32;62.32;99600.63;5272160;28;20449;-68
2022/04/08 12:00:33;;;;;;;7.30;4.25;;;;;;;8.24;61.00;99597.44;5269132;28;20103;-68
2022/04/08 12:03:04;;;;;;;8.60;4.80;;;;;;;8.25;61.25;99604.59;5262868;28;20055;-68
2022/04/08 12:05:44;;;;;;;7.10;3.60;;;;;;;7.96;61.54;99593.81;5245569;28;20064;-70
2022/04/08 12:08:18;;;;;;;10.15;3.95;;;;;;;8.18;62.55;99593.16;5255266;28;20017;-70
2022/04/08 12:10:54;;;;;;;7.25;3.50;;;;;;;8.26;61.75;99592.44;5281564;28;20025;-70
2022/04/08 12:13:29;;;;;;;5.88;4.18;;;;;;;8.28;61.11;99583.81;5267239;28;20515;-72
2022/04/08 12:16:00;;;;;;;9.18;3.92;;;;;;;8.46;60.64;99588.50;5278272;28;20036;-71
2022/04/08 12:18:32;;;;;;;6.65;3.70;;;;;;;8.39;59.38;99590.84;5258547;28;20067;-73
2022/04/08 12:21:05;;;;;;;9.73;4.68;;;;;;;8.37;60.13;99586.72;5267403;28;20086;-71
2022/04/08 12:23:40;;;;;;;7.60;4.45;;;;;;;8.34;59.82;99585.38;5266018;28;20017;-71
2022/04/08 12:26:11;;;;;;;8.93;3.90;;;;;;;8.34;59.89;99581.81;5247993;28;20465;-71
2022/04/08 12:28:42;;;;;;;5.53;4.00;;;;;;;8.31;59.68;99585.16;5262293;28;20024;-71
2022/04/08 12:31:17;;;;;;;6.78;3.65;;;;;;;8.34;60.30;99581.81;5274805;28;20021;-72
2022/04/08 12:33:48;;;;;;;5.35;4.45;;;;;;;8.29;60.06;99582.72;5261285;28;20353;-71
2022/04/08 12:36:20;;;;;;;7.53;4.18;;;;;;;8.36;60.06;99587.81;5271308;28;20083;-67
2022/04/08 12:38:51;;;;;;;10.25;4.55;;;;;;;8.35;60.06;99580.66;5247839;28;20026;-68
2022/04/08 12:41:22;;;;;;;5.30;4.15;;;;;;;8.21;58.62;99584.25;5269379;28;20070;-68
2022/04/08 12:43:57;;;;;;;5.82;3.85;;;;;;;8.06;58.76;99577.06;5255389;28;20029;-69
2022/04/08 12:46:28;;;;;;;6.68;4.10;;;;;;;8.26;60.12;99575.88;5265923;28;20016;-68
2022/04/08 12:48:59;;;;;;;9.10;4.85;;;;;;;8.22;59.51;99574.81;5276281;28;20498;-68
2022/04/08 12:51:32;;;;;;;42.50;30.00;;;;;;;8.23;57.87;99572.88;5270482;28;20396;-68
2022/04/08 12:54:03;;;;;;;14.93;9.60;;;;;;;8.19;58.24;99572.69;5268929;28;20017;-69
2022/04/08 12:56:34;;;;;;;40.45;32.88;;;;;;;8.17;57.93;99574.91;5283065;28;20074;-69
2022/04/08 12:59:09;;;;;;;20.55;11.00;;;;;;;8.27;58.58;99579.44;5276841;28;20110;-69
2022/04/08 13:01:40;;;;;;;6.07;4.22;;;;;;;8.51;59.18;99570.16;5266322;28;20091;-69
2022/04/08 13:04:12;;;;;;;6.05;4.55;;;;;;;8.52;58.60;99563.53;5275028;28;20028;-67
2022/04/08 13:06:44;;;;;;;11.15;4.38;;;;;;;8.49;59.30;99571.31;5273586;28;20109;-67
2022/04/08 13:09:20;;;;;;;9.15;4.50;;;;;;;8.58;58.27;99582.44;5271601;28;20108;-67
2022/04/08 13:11:51;;;;;;;8.90;7.15;;;;;;;8.54;58.32;99584.19;5256600;28;20473;-67
2022/04/08 13:14:23;;;;;;;19.75;15.52;;;;;;;8.53;58.75;99573.44;5278387;28;20052;-69
2022/04/08 13:16:54;;;;;;;8.43;4.57;;;;;;;8.55;58.87;99576.72;5274894;28;20020;-68
2022/04/08 13:19:26;;;;;;;9.98;4.78;;;;;;;8.66;58.72;99580.91;5269967;28;20532;-67
2022/04/08 13:21:57;;;;;;;6.32;4.85;;;;;;;8.67;57.91;99579.81;5279585;28;20028;-67
2022/04/08 13:24:28;;;;;;;5.93;4.72;;;;;;;8.68;57.71;99579.47;5277085;28;20028;-67
2022/04/08 13:26:59;;;;;;;9.40;5.55;;;;;;;8.91;57.53;99568.50;5263947;28;20124;-66
2022/04/08 13:29:31;;;;;;;15.45;12.40;;;;;;;8.96;57.25;99568.41;5276380;28;20023;-67
2022/04/08 13:32:02;;;;;;;10.45;5.32;;;;;;;9.06;56.16;99562.63;5268152;28;20017;-68
2022/04/08 13:34:34;;;;;;;9.95;4.55;;;;;;;9.09;56.81;99564.78;5261355;28;20393;-69
2022/04/08 13:37:08;;;;;;;9.35;4.88;;;;;;;9.11;58.07;99575.53;5265344;28;20388;-67
2022/04/08 13:39:40;;;;;;;10.60;5.03;;;;;;;9.11;57.34;99576.34;5280277;28;20021;-69
2022/04/08 13:42:11;;;;;;;8.10;4.40;;;;;;;8.99;57.01;99572.47;5255111;28;20035;-69
2022/04/08 13:44:42;;;;;;;13.35;7.90;;;;;;;9.00;57.47;99565.81;5252287;28;20037;-68
2022/04/08 13:47:14;;;;;;;17.00;11.32;;;;;;;8.87;58.55;99567.47;5269541;28;20032;-68
2022/04/08 13:49:45;;;;;;;8.98;4.80;;;;;;;8.97;58.78;99572.78;5280253;28;20051;-67
2022/04/08 13:52:16;;;;;;;9.50;4.47;;;;;;;8.77;58.94;99562.16;5279522;28;20020;-71
2022/04/08 13:54:49;;;;;;;13.48;5.80;;;;;;;8.79;58.88;99562.69;5273387;28;20122;-68
2022/04/08 13:57:20;;;;;;;9.25;5.60;;;;;;;8.76;59.85;99563.31;5269169;28;20052;-68
2022/04/08 13:59:51;;;;;;;23.60;14.20;;;;;;;8.93;59.52;99563.50;5270417;28;20025;-68
2022/04/08 14:02:23;;;;;;;8.43;4.63;;;;;;;8.87;58.86;99564.72;5260242;28;20056;-68
2022/04/08 14:04:54;;;;;;;14.27;9.32;;;;;;;8.89;58.21;99551.41;5273409;28;20032;-67
2022/04/08 14:07:28;;;;;;;10.38;4.40;;;;;;;9.07;58.84;99557.91;5269448;28;20021;-68
2022/04/08 14:09:59;;;;;;;8.13;4.28;;;;;;;9.11;57.82;99564.47;5279224;28;20035;-68
2022/04/08 14:12:31;;;;;;;5.38;3.05;;;;;;;9.29;58.29;99563.50;5269587;28;20115;-68
2022/04/08 14:15:03;;;;;;;45.45;38.05;;;;;;;9.25;57.21;99564.44;5272904;28;20421;-69
2022/04/08 14:17:34;;;;;;;7.68;3.45;;;;;;;9.21;54.39;99561.47;5270004;28;20029;-69
2022/04/08 14:20:06;;;;;;;5.35;2.80;;;;;;;9.24;54.95;99560.84;5246063;28;20526;-64
2022/04/08 14:22:38;;;;;;;6.15;3.03;;;;;;;9.40;55.10;99564.06;5243692;28;20029;-65
2022/04/08 14:25:10;;;;;;;6.70;2.88;;;;;;;9.28;53.34;99563.78;5257714;28;20029;-66
2022/04/08 14:27:41;;;;;;;5.80;2.67;;;;;;;9.38;53.77;99560.78;5249525;28;20499;-65
2022/04/08 14:30:12;;;;;;;7.05;2.40;;;;;;;9.33;52.85;99559.00;5263463;28;20039;-66
2022/04/08 14:32:48;;;;;;;5.93;2.67;;;;;;;9.46;53.65;99564.75;5273910;28;20059;-66
2022/04/08 14:35:19;;;;;;;5.35;2.58;;;;;;;9.36;52.89;99560.31;5266487;28;20108;-66
2022/04/08 14:37:50;;;;;;;4.75;2.70;;;;;;;9.53;52.89;99556.84;5277322;28;20116;-66
2022/04/08 14:40:22;;;;;;;6.65;2.50;;;;;;;9.38;53.11;99558.03;5258575;28;20027;-67
2022/04/08 14:42:55;;;;;;;30.33;19.08;;;;;;;9.44;53.69;99556.78;5266766;28;20387;-66
2022/04/08 14:45:31;;;;;;;24.80;15.90;;;;;;;9.65;54.67;99550.75;5241684;28;20091;-66
2022/04/08 14:48:03;;;;;;;26.00;17.38;;;;;;;9.78;52.81;99560.94;5278152;28;20032;-66
2022/04/08 14:50:34;;;;;;;6.15;2.47;;;;;;;9.79;52.63;99557.03;5260695;28;20029;-66
2022/04/08 14:53:05;;;;;;;8.82;2.40;;;;;;;9.72;52.30;99556.66;5263745;28;20021;-68
2022/04/08 14:55:37;;;;;;;20.40;17.80;;;;;;;9.64;53.57;99566.56;5276374;28;20025;-67
2022/04/08 14:58:08;;;;;;;5.03;2.80;;;;;;;9.48;53.65;99560.53;5258872;28;20045;-67
2022/04/08 15:00:39;;;;;;;7.43;3.15;;;;;;;9.51;53.27;99564.63;5263095;28;20033;-67
2022/04/08 15:03:12;;;;;;;8.73;3.28;;;;;;;9.43;53.58;99571.75;5270491;28;20028;-68
2022/04/08 15:05:43;;;;;;;7.65;2.92;;;;;;;9.47;54.58;99571.94;5264475;28;20060;-67
2022/04/08 15:08:14;;;;;;;7.10;2.90;;;;;;;9.45;54.70;99563.94;5267976;28;20071;-68
2022/04/08 15:10:51;;;;;;;7.50;4.72;;;;;;;9.41;55.02;99574.03;5256713;28;20029;-68
2022/04/08 15:13:22;;;;;;;29.90;19.80;;;;;;;9.54;57.87;99578.69;5269584;28;20395;-68
2022/04/08 15:15:53;;;;;;;32.05;18.25;;;;;;;9.63;55.78;99577.94;5257894;28;20026;-68
2022/04/08 15:18:25;;;;;;;8.57;5.75;;;;;;;9.65;56.41;99579.25;5274648;28;20029;-68
2022/04/08 15:20:57;;;;;;;8.63;4.45;;;;;;;9.61;56.08;99581.00;5256995;28;20024;-68
2022/04/08 15:23:29;;;;;;;5.78;3.05;;;;;;;9.72;57.65;99585.16;5265825;28;20075;-68
2022/04/08 15:26:02;;;;;;;7.35;4.03;;;;;;;9.81;58.69;99593.53;5274780;28;20029;-68
2022/04/08 15:28:34;;;;;;;5.22;2.95;;;;;;;9.65;58.32;99590.31;5263766;28;20056;-69
2022/04/08 15:31:05;;;;;;;6.65;3.35;;;;;;;9.73;59.91;99597.06;5257422;28;20505;-68
2022/04/08 15:33:36;;;;;;;23.55;16.77;;;;;;;9.60;57.11;99592.41;5278266;28;20021;-68
2022/04/08 15:36:08;;;;;;;17.30;10.65;;;;;;;9.68;57.67;99589.69;5265619;28;20021;-68
2022/04/08 15:38:39;;;;;;;10.73;6.38;;;;;;;9.77;59.32;99593.34;5263156;28;20060;-68
2022/04/08 15:41:10;;;;;;;4.78;2.22;;;;;;;9.55;54.46;99601.63;5257300;28;20029;-67
2022/04/08 15:43:42;;;;;;;7.38;3.90;;;;;;;9.76;58.06;99607.50;5258358;28;20037;-67
2022/04/08 15:46:13;;;;;;;5.97;2.42;;;;;;;9.48;54.67;99606.78;5266615;28;20074;-67
2022/04/08 15:48:47;;;;;;;8.70;6.32;;;;;;;9.69;57.39;99607.94;5271634;28;20075;-69
2022/04/08 15:51:18;;;;;;;8.25;5.13;;;;;;;9.52;54.53;99603.09;5266132;28;20035;-67
2022/04/08 15:53:53;;;;;;;26.08;22.58;;;;;;;9.66;54.91;99607.75;5277391;28;20035;-68
2022/04/08 15:56:24;;;;;;;4.97;2.65;;;;;;;9.58;55.11;99615.66;5254334;28;20021;-69
2022/04/08 15:58:55;;;;;;;8.32;3.08;;;;;;;9.68;55.13;99613.78;5266471;28;20035;-68
2022/04/08 16:01:27;;;;;;;8.70;5.03;;;;;;;9.51;55.08;99618.06;5252428;28;20403;-68
2022/04/08 16:03:58;;;;;;;32.55;25.88;;;;;;;9.57;53.81;99618.75;5271164;28;20024;-68
2022/04/08 16:06:29;;;;;;;10.63;7.03;;;;;;;9.67;55.43;99621.28;5274888;28;20072;-68
2022/04/08 16:09:01;;;;;;;7.57;1.90;;;;;;;9.47;52.86;99622.56;5266679;28;20464;-68
2022/04/08 16:11:35;;;;;;;6.40;2.22;;;;;;;9.45;53.65;99633.13;5276951;28;20035;-68
2022/04/08 16:14:07;;;;;;;6.00;1.83;;;;;;;9.27;52.76;99634.91;5258361;28;20502;-67
2022/04/08 16:16:39;;;;;;;4.57;2.05;;;;;;;9.38;53.17;99632.75;5273096;28;20017;-68
2022/04/08 16:19:10;;;;;;;5.15;2.00;;;;;;;9.43;54.53;99640.09;5265802;28;20111;-69
2022/04/08 16:21:42;;;;;;;4.03;2.55;;;;;;;9.39;54.87;99645.47;5258286;28;20061;-68
2022/04/08 16:24:14;;;;;;;7.00;2.92;;;;;;;9.49;55.24;99648.00;5278436;28;20036;-66
2022/04/08 16:26:45;;;;;;;6.53;2.35;;;;;;;9.34;53.81;99651.91;5285158;28;20502;-67
2022/04/08 16:29:16;;;;;;;6.55;2.97;;;;;;;9.29;53.25;99648.44;5272495;28;20457;-69
2022/04/08 16:31:48;;;;;;;7.25;2.10;;;;;;;9.24;52.74;99654.91;5265597;28;20033;-69
2022/04/08 16:34:19;;;;;;;8.32;2.25;;;;;;;9.08;51.91;99659.94;5267530;28;20064;-69
2022/04/08 16:36:50;;;;;;;9.38;8.02;;;;;;;9.13;52.26;99657.06;5265011;28;20051;-68
2022/04/08 16:39:22;;;;;;;6.50;2.90;;;;;;;9.11;52.69;99658.53;5270485;28;20017;-69
2022/04/08 16:41:56;;;;;;;4.80;2.90;;;;;;;9.05;52.47;99663.34;5274615;28;20033;-69
2022/04/08 16:44:27;;;;;;;4.50;2.75;;;;;;;9.18;52.53;99661.69;5264288;28;20087;-69
2022/04/08 16:46:59;;;;;;;7.47;2.22;;;;;;;9.04;53.27;99672.75;5273742;28;20361;-69
2022/04/08 16:49:30;;;;;;;7.57;2.33;;;;;;;8.85;53.55;99672.88;5257740;28;20396;-69
2022/04/08 16:52:02;;;;;;;3.33;1.90;;;;;;;8.75;53.99;99677.78;5259055;28;20808;-68
2022/04/08 16:54:34;;;;;;;7.78;2.95;;;;;;;8.69;54.90;99679.78;5254299;28;20507;-69
2022/04/08 16:57:05;;;;;;;8.48;2.53;;;;;;;8.66;55.29;99678.47;5249367;28;20053;-70
2022/04/08 16:59:37;;;;;;;3.65;2.10;;;;;;;8.64;55.10;99688.19;5276545;28;20021;-70
2022/04/08 17:02:08;;;;;;;4.55;2.20;;;;;;;8.66;54.97;99686.75;5256723;28;20027;-70
2022/04/08 17:04:40;;;;;;;4.38;1.80;;;;;;;8.52;55.14;99682.34;5250431;28;20021;-70
2022/04/08 17:07:11;;;;;;;4.38;2.08;;;;;;;8.48;54.98;99679.38;5246819;28;20110;-69
2022/04/08 17:09:42;;;;;;;4.38;2.15;;;;;;;8.51;56.23;99684.28;5255347;28;20033;-70
2022/04/08 17:12:14;;;;;;;4.95;4.15;;;;;;;8.52;55.65;99687.88;5260806;28;20035;-70
2022/04/08 17:14:45;;;;;;;4.25;2.10;;;;;;;8.45;55.81;99694.59;5266071;28;20029;-71
2022/04/08 17:17:18;;;;;;;4.00;2.03;;;;;;;8.39;56.05;99695.81;5258323;28;20392;-70
2022/04/08 17:19:49;;;;;;;5.80;2.63;;;;;;;8.44;56.53;99698.50;5277219;28;20020;-70
2022/04/08 17:22:21;;;;;;;5.13;2.00;;;;;;;8.43;56.48;99698.78;5280851;28;20491;-70
2022/04/08 17:24:52;;;;;;;8.35;2.95;;;;;;;8.30;57.72;99705.06;5278315;28;20024;-70
2022/04/08 17:27:23;;;;;;;7.47;2.88;;;;;;;8.31;58.97;99703.94;5264315;28;20037;-69
2022/04/08 17:29:55;;;;;;;4.72;2.30;;;;;;;8.20;59.04;99701.34;5279944;28;20123;-69
